RJCJ(METAR)
07/17 15:00
METAR RJCJ 170600Z 18011KT 9999 FEW003 SCT004 OVC005 19/17 Q1015 RMK
1ST003 3ST004 8ST005 A2998=
戻る
トップページへ戻る
IMOC Co,.Ltd.